Monday, October 20, 2014, 12:22 AM EDT

KESN, Easton / Newman Field

Location: Easton, MD, United States Lat: 38.8
Local Time: 12:22 AM EDT ( 4:22 GMT) Lon: -76.067
Time Zone: US/Eastern Elev: 72 ft

Show me the last for .
Show Decoded

2014-10-19 20:53 METAR KESN 200053Z 00000KT 10SM SCT250 08/03 A3012 =
2014-10-19 19:50 METAR KESN 192350Z 00000KT 10SM SCT250 09/03 A3011 =
2014-10-19 18:50 METAR KESN 192250Z 00000KT 10SM SCT250 11/02 A3009 =
2014-10-19 17:50 METAR KESN 192150Z 32008KT 10SM SCT250 14/00 A3008 =
2014-10-19 16:50 METAR KESN 192050Z 33011G16KT 10SM SKC 15/01 A3006 =
2014-10-19 15:50 METAR KESN 191950Z 32014G19KT 10SM SKC 15/02 A3005 =
2014-10-19 14:50 METAR KESN 191850Z 34013G18KT 10SM SKC 14/01 A3005 =
2014-10-19 13:50 METAR KESN 191750Z 35015G19KT 10SM SKC 14/02 A3005 =
2014-10-19 12:55 METAR KESN 191655Z 32014G19KT 10SM SCT060 13/02 A3006 =
2014-10-19 11:50 METAR KESN 191550Z 32017G23KT 10SM OVC041 12/03 A3006 =
2014-10-19 10:50 METAR KESN 191450Z 32012G20KT 10SM BKN041 12/03 A3005 =
2014-10-19 09:50 METAR KESN 191350Z 33010G21KT 10SM OVC036 12/04 A3004 =
2014-10-19 08:55 METAR KESN 191255Z 33010G21KT 10SM OVC038 12/05 A3002 =
2014-10-19 07:55 METAR KESN 191155Z 35007KT 10SM SCT039 11/05 A3000 =
2014-10-19 06:55 METAR KESN 191055Z 35010G18KT 10SM SCT043 BKN049 12/04 A2997 =
2014-10-19 06:26 METAR KESN 191026Z AUTO 36006KT 10SM OVC038 13/06 A2994 RMK AO2 T01260057 =
2014-10-19 06:14 METAR KESN 191015Z AUTO 35011G16KT 10SM BKN036 OVC043 13/06 A2993 =
2014-10-19 06:11 METAR KESN 191015Z AUTO 35011G16KT 10SM BKN036 OVC043 13/06 A2993 RMK AO2
                 T01280059 =
2014-10-19 05:55 METAR KESN 190955Z AUTO 35009G19KT 10SM BKN038 BKN046 13/06 A2992 RMK AO2
                 T01300060 =
2014-10-19 05:50 METAR KESN 190950Z 33010KT 10SM BKN036 OVC050 13/06 A2993 =
2014-10-19 05:31 METAR KESN 190935Z AUTO 35008G15KT 10SM BKN038 OVC044 13/06 A2991 =
2014-10-19 05:27 METAR KESN 190935Z AUTO 35008G15KT 10SM BKN038 OVC044 13/06 A2991 RMK AO2
                 T01300064 =
2014-10-19 05:13 METAR KESN 190915Z AUTO 34008KT 10SM BKN036 OVC044 13/07 A2991 =
2014-10-19 05:11 METAR KESN 190915Z AUTO 34008KT 10SM BKN036 OVC044 13/07 A2991 RMK AO2 T01300070
                 =
2014-10-19 04:55 METAR KESN 190855Z AUTO 34008G15KT 10SM OVC038 13/07 A2990 RMK AO2 T01300067 =
2014-10-19 04:33 METAR KESN 190835Z AUTO 32009G17KT 10SM BKN042 BKN090 13/07 A2990 =
2014-10-19 04:33 METAR KESN 190835Z AUTO 32009G17KT 10SM BKN042 BKN090 13/07 A2990 RMK AO2
                 T01300068 =
2014-10-19 04:11 METAR KESN 190815Z AUTO 33008G14KT 10SM SCT042 SCT090 13/07 A2989 =
2014-10-19 04:09 METAR KESN 190815Z AUTO 33008G14KT 10SM SCT042 SCT090 13/07 A2989 RMK AO2
                 T01260070 =
2014-10-19 03:55 METAR KESN 190755Z AUTO 31009KT 10SM CLR 12/07 A2990 RMK AO2 T01220070 =
2014-10-19 03:32 METAR KESN 190735Z AUTO 33008KT 10SM SCT060 12/07 A2989 =
2014-10-19 03:32 METAR KESN 190735Z AUTO 33008KT 10SM SCT060 12/07 A2989 RMK AO2 T01220069 =
2014-10-19 03:11 METAR KESN 190715Z AUTO 32008G14KT 10SM BKN060 12/07 A2989 =
2014-10-19 03:09 METAR KESN 190715Z AUTO 32008G14KT 10SM BKN060 12/07 A2989 RMK AO2 T01230070 =
2014-10-19 02:55 METAR KESN 190655Z AUTO 33007KT 10SM SCT060 12/07 A2988 RMK AO2 T01220070 =
2014-10-19 02:30 METAR KESN 190635Z AUTO 33010KT 10SM CLR 12/07 A2988 =
2014-10-19 02:29 METAR KESN 190635Z AUTO 33010KT 10SM CLR 12/07 A2988 RMK AO2 T01200070 =
2014-10-19 02:09 METAR KESN 190615Z AUTO 32010G15KT 10SM CLR 12/07 A2988 RMK AO2 T01200069 =
2014-10-19 02:08 METAR KESN 190615Z AUTO 32010G15KT 10SM CLR 12/07 A2988 =
2014-10-19 01:54 METAR KESN 190554Z AUTO 31008KT 10SM CLR 12/07 A2988 RMK AO2 T01240067 =
2014-10-19 01:29 METAR KESN 190534Z AUTO 31007KT 10SM CLR 13/07 A2988 =
2014-10-19 01:29 METAR KESN 190534Z AUTO 31007KT 10SM CLR 13/07 A2988 RMK AO2 T01250067 =
2014-10-19 01:14 METAR KESN 190514Z AUTO 31006KT 10SM CLR 13/07 A2988 RMK AO2 T01260065 =
2014-10-19 00:54 METAR KESN 190454Z AUTO 32010KT 10SM CLR 13/07 A2988 RMK AO2 T01260066 =
2014-10-19 00:32 METAR KESN 190434Z AUTO 32009G14KT 10SM CLR 13/07 A2988 =
2014-10-19 00:32 METAR KESN 190434Z AUTO 32009G14KT 10SM CLR 13/07 A2988 RMK AO2 T01290065 =

Support USWX by starting your Amazon purchase here.